sensor_id;sensor_type;location;lat;lon;timestamp;P1;durP1;ratioP1;P2;durP2;ratioP2
15643;SDS011;7921;43.586;1.408;2023-04-26T05:27:50;6.43;;;5.93;;
15643;SDS011;7921;43.586;1.408;2023-04-26T05:30:15;6.33;;;5.83;;
15643;SDS011;7921;43.586;1.408;2023-04-26T05:32:41;6.10;;;5.60;;
15643;SDS011;7921;43.586;1.408;2023-04-26T05:35:06;6.50;;;5.90;;
15643;SDS011;7921;43.586;1.408;2023-04-26T05:37:32;6.77;;;6.07;;
15643;SDS011;7921;43.586;1.408;2023-04-26T05:39:58;7.57;;;6.83;;
15643;SDS011;7921;43.586;1.408;2023-04-26T05:42:24;6.90;;;6.30;;
15643;SDS011;7921;43.586;1.408;2023-04-26T05:44:49;8.03;;;7.40;;
15643;SDS011;7921;43.586;1.408;2023-04-26T05:47:14;8.70;;;7.90;;
15643;SDS011;7921;43.586;1.408;2023-04-26T05:49:40;8.80;;;8.03;;
15643;SDS011;7921;43.586;1.408;2023-04-26T05:52:05;8.30;;;7.60;;
15643;SDS011;7921;43.586;1.408;2023-04-26T05:54:30;7.77;;;7.17;;
15643;SDS011;7921;43.586;1.408;2023-04-26T05:56:56;7.40;;;6.70;;
15643;SDS011;7921;43.586;1.408;2023-04-26T05:59:21;6.80;;;6.20;;
15643;SDS011;7921;43.586;1.408;2023-04-26T06:01:47;5.73;;;5.23;;
15643;SDS011;7921;43.586;1.408;2023-04-26T06:04:12;5.20;;;4.80;;
15643;SDS011;7921;43.586;1.408;2023-04-26T06:06:37;4.93;;;4.53;;
15643;SDS011;7921;43.586;1.408;2023-04-26T06:09:03;5.23;;;4.83;;
15643;SDS011;7921;43.586;1.408;2023-04-26T06:11:28;5.10;;;4.70;;
15643;SDS011;7921;43.586;1.408;2023-04-26T06:13:55;5.30;;;4.90;;
15643;SDS011;7921;43.586;1.408;2023-04-26T06:16:21;4.70;;;4.40;;
15643;SDS011;7921;43.586;1.408;2023-04-26T06:18:46;5.00;;;4.60;;
15643;SDS011;7921;43.586;1.408;2023-04-26T06:21:12;4.67;;;4.37;;
15643;SDS011;7921;43.586;1.408;2023-04-26T06:23:37;4.53;;;4.23;;
15643;SDS011;7921;43.586;1.408;2023-04-26T06:26:02;4.73;;;4.43;;
15643;SDS011;7921;43.586;1.408;2023-04-26T06:28:28;4.97;;;4.57;;
15643;SDS011;7921;43.586;1.408;2023-04-26T06:30:53;4.83;;;4.53;;
15643;SDS011;7921;43.586;1.408;2023-04-26T06:33:18;4.27;;;3.97;;
15643;SDS011;7921;43.586;1.408;2023-04-26T06:35:45;4.60;;;4.30;;
15643;SDS011;7921;43.586;1.408;2023-04-26T06:38:11;4.97;;;4.57;;
15643;SDS011;7921;43.586;1.408;2023-04-26T06:40:37;5.00;;;4.67;;
15643;SDS011;7921;43.586;1.408;2023-04-26T06:43:02;4.93;;;4.53;;
15643;SDS011;7921;43.586;1.408;2023-04-26T06:45:28;5.07;;;4.67;;
15643;SDS011;7921;43.586;1.408;2023-04-26T06:47:53;4.30;;;4.00;;
15643;SDS011;7921;43.586;1.408;2023-04-26T06:50:19;4.73;;;4.33;;
15643;SDS011;7921;43.586;1.408;2023-04-26T06:52:44;4.77;;;4.37;;
15643;SDS011;7921;43.586;1.408;2023-04-26T06:55:10;4.87;;;4.47;;
15643;SDS011;7921;43.586;1.408;2023-04-26T06:57:35;5.43;;;5.03;;
15643;SDS011;7921;43.586;1.408;2023-04-26T07:00:01;5.93;;;5.43;;
15643;SDS011;7921;43.586;1.408;2023-04-26T07:02:28;6.57;;;6.00;;
15643;SDS011;7921;43.586;1.408;2023-04-26T07:04:53;6.60;;;6.00;;
15643;SDS011;7921;43.586;1.408;2023-04-26T07:07:18;6.27;;;5.73;;
15643;SDS011;7921;43.586;1.408;2023-04-26T07:09:44;6.70;;;5.57;;
15643;SDS011;7921;43.586;1.408;2023-04-26T07:12:10;5.27;;;4.77;;
15643;SDS011;7921;43.586;1.408;2023-04-26T07:14:36;5.70;;;5.17;;
15643;SDS011;7921;43.586;1.408;2023-04-26T07:17:04;5.03;;;4.70;;
15643;SDS011;7921;43.586;1.408;2023-04-26T07:19:30;5.23;;;4.83;;
15643;SDS011;7921;43.586;1.408;2023-04-26T07:21:55;6.83;;;4.23;;
15643;SDS011;7921;43.586;1.408;2023-04-26T07:24:21;4.90;;;4.50;;
15643;SDS011;7921;43.586;1.408;2023-04-26T07:26:46;4.70;;;4.20;;
15643;SDS011;7921;43.586;1.408;2023-04-26T07:29:11;4.77;;;4.37;;
15643;SDS011;7921;43.586;1.408;2023-04-26T07:31:37;5.70;;;4.47;;
15643;SDS011;7921;43.586;1.408;2023-04-26T07:34:02;5.23;;;4.20;;
15643;SDS011;7921;43.586;1.408;2023-04-26T07:36:27;5.10;;;4.63;;
15643;SDS011;7921;43.586;1.408;2023-04-26T07:38:53;5.43;;;4.50;;
15643;SDS011;7921;43.586;1.408;2023-04-26T07:41:19;5.57;;;5.07;;
15643;SDS011;7921;43.586;1.408;2023-04-26T07:43:44;4.60;;;4.20;;
15643;SDS011;7921;43.586;1.408;2023-04-26T07:46:10;5.07;;;4.40;;
15643;SDS011;7921;43.586;1.408;2023-04-26T07:48:35;4.33;;;3.93;;
15643;SDS011;7921;43.586;1.408;2023-04-26T07:51:07;4.33;;;3.97;;
15643;SDS011;7921;43.586;1.408;2023-04-26T07:53:33;3.87;;;3.57;;
15643;SDS011;7921;43.586;1.408;2023-04-26T07:55:59;4.40;;;4.03;;
15643;SDS011;7921;43.586;1.408;2023-04-26T07:58:24;4.60;;;4.20;;
15643;SDS011;7921;43.586;1.408;2023-04-26T08:00:50;4.20;;;3.50;;
15643;SDS011;7921;43.586;1.408;2023-04-26T08:03:15;4.03;;;3.23;;
15643;SDS011;7921;43.586;1.408;2023-04-26T08:05:44;3.50;;;3.30;;
15643;SDS011;7921;43.586;1.408;2023-04-26T08:08:09;3.00;;;2.80;;
15643;SDS011;7921;43.586;1.408;2023-04-26T08:10:35;5.03;;;3.60;;
15643;SDS011;7921;43.586;1.408;2023-04-26T08:13:02;3.83;;;3.53;;
15643;SDS011;7921;43.586;1.408;2023-04-26T08:15:27;3.70;;;3.40;;
15643;SDS011;7921;43.586;1.408;2023-04-26T08:17:53;3.00;;;2.80;;
15643;SDS011;7921;43.586;1.408;2023-04-26T08:20:18;3.70;;;3.20;;
15643;SDS011;7921;43.586;1.408;2023-04-26T08:22:44;2.90;;;2.70;;
15643;SDS011;7921;43.586;1.408;2023-04-26T08:25:10;2.13;;;2.03;;
15643;SDS011;7921;43.586;1.408;2023-04-26T08:27:36;3.53;;;2.70;;
15643;SDS011;7921;43.586;1.408;2023-04-26T08:30:01;2.30;;;2.20;;
15643;SDS011;7921;43.586;1.408;2023-04-26T08:32:28;2.80;;;2.60;;
15643;SDS011;7921;43.586;1.408;2023-04-26T08:34:53;2.77;;;2.60;;
15643;SDS011;7921;43.586;1.408;2023-04-26T08:37:19;2.57;;;2.37;;
15643;SDS011;7921;43.586;1.408;2023-04-26T08:39:44;2.73;;;2.53;;
15643;SDS011;7921;43.586;1.408;2023-04-26T08:42:12;2.97;;;2.57;;
15643;SDS011;7921;43.586;1.408;2023-04-26T08:44:40;3.37;;;3.07;;
15643;SDS011;7921;43.586;1.408;2023-04-26T08:47:26;3.50;;;3.20;;
15643;SDS011;7921;43.586;1.408;2023-04-26T08:49:55;3.20;;;3.00;;
15643;SDS011;7921;43.586;1.408;2023-04-26T08:52:27;3.30;;;3.10;;
15643;SDS011;7921;43.586;1.408;2023-04-26T08:54:53;3.47;;;2.90;;
15643;SDS011;7921;43.586;1.408;2023-04-26T08:57:19;4.90;;;3.13;;
15643;SDS011;7921;43.586;1.408;2023-04-26T08:59:45;2.70;;;2.30;;
15643;SDS011;7921;43.586;1.408;2023-04-26T09:02:12;2.73;;;2.53;;
15643;SDS011;7921;43.586;1.408;2023-04-26T09:04:40;4.00;;;2.97;;
15643;SDS011;7921;43.586;1.408;2023-04-26T09:07:06;2.87;;;2.67;;
15643;SDS011;7921;43.586;1.408;2023-04-26T09:09:34;3.97;;;3.67;;
15643;SDS011;7921;43.586;1.408;2023-04-26T09:12:02;3.77;;;3.47;;
15643;SDS011;7921;43.586;1.408;2023-04-26T09:14:29;3.10;;;2.90;;
15643;SDS011;7921;43.586;1.408;2023-04-26T09:16:54;3.13;;;2.93;;
15643;SDS011;7921;43.586;1.408;2023-04-26T09:19:33;3.60;;;2.87;;
15643;SDS011;7921;43.586;1.408;2023-04-26T09:21:59;3.50;;;3.30;;
15643;SDS011;7921;43.586;1.408;2023-04-26T09:24:25;2.77;;;2.60;;
15643;SDS011;7921;43.586;1.408;2023-04-26T09:27:00;3.50;;;3.30;;
15643;SDS011;7921;43.586;1.408;2023-04-26T09:29:27;4.50;;;4.20;;
15643;SDS011;7921;43.586;1.408;2023-04-26T09:31:52;3.37;;;3.10;;
15643;SDS011;7921;43.586;1.408;2023-04-26T09:34:18;4.20;;;3.90;;
15643;SDS011;7921;43.586;1.408;2023-04-26T09:36:50;3.70;;;3.40;;
15643;SDS011;7921;43.586;1.408;2023-04-26T09:39:29;3.17;;;2.87;;
15643;SDS011;7921;43.586;1.408;2023-04-26T09:42:08;3.37;;;2.87;;
15643;SDS011;7921;43.586;1.408;2023-04-26T09:44:35;3.20;;;2.93;;
15643;SDS011;7921;43.586;1.408;2023-04-26T09:49:31;3.30;;;3.10;;
15643;SDS011;7921;43.586;1.408;2023-04-26T09:51:58;3.17;;;2.97;;
15643;SDS011;7921;43.586;1.408;2023-04-26T09:54:36;3.00;;;2.70;;
15643;SDS011;7921;43.586;1.408;2023-04-26T09:57:06;3.10;;;2.90;;
15643;SDS011;7921;43.586;1.408;2023-04-26T09:59:41;2.67;;;2.47;;
15643;SDS011;7921;43.586;1.408;2023-04-26T10:02:14;2.83;;;2.30;;
15643;SDS011;7921;43.586;1.408;2023-04-26T10:04:44;2.50;;;2.30;;
15643;SDS011;7921;43.586;1.408;2023-04-26T10:07:11;3.13;;;2.93;;
15643;SDS011;7921;43.586;1.408;2023-04-26T10:09:38;2.73;;;2.63;;
15643;SDS011;7921;43.586;1.408;2023-04-26T10:12:03;3.03;;;2.20;;
15643;SDS011;7921;43.586;1.408;2023-04-26T10:14:29;1.50;;;1.00;;
15643;SDS011;7921;43.586;1.408;2023-04-26T10:16:54;1.23;;;1.23;;
15643;SDS011;7921;43.586;1.408;2023-04-26T10:19:21;2.50;;;1.57;;
15643;SDS011;7921;43.586;1.408;2023-04-26T10:21:47;2.70;;;2.30;;
15643;SDS011;7921;43.586;1.408;2023-04-26T10:24:12;2.63;;;2.53;;
15643;SDS011;7921;43.586;1.408;2023-04-26T10:26:51;2.72;;;2.58;;
15643;SDS011;7921;43.586;1.408;2023-04-26T10:29:25;3.38;;;3.17;;
15643;SDS011;7921;43.586;1.408;2023-04-26T10:34:26;4.17;;;3.87;;
15643;SDS011;7921;43.586;1.408;2023-04-26T10:37:14;4.30;;;3.92;;
15643;SDS011;7921;43.586;1.408;2023-04-26T10:39:41;5.40;;;4.53;;
15643;SDS011;7921;43.586;1.408;2023-04-26T10:44:53;2.50;;;2.40;;
15643;SDS011;7921;43.586;1.408;2023-04-26T10:47:24;2.90;;;2.70;;
15643;SDS011;7921;43.586;1.408;2023-04-26T10:52:33;2.47;;;2.28;;
15643;SDS011;7921;43.586;1.408;2023-04-26T10:54:59;2.90;;;2.70;;
15643;SDS011;7921;43.586;1.408;2023-04-26T11:08:07;3.30;;;3.05;;
15643;SDS011;7921;43.586;1.408;2023-04-26T11:10:38;2.58;;;2.38;;
15643;SDS011;7921;43.586;1.408;2023-04-26T11:13:05;2.70;;;2.50;;
15643;SDS011;7921;43.586;1.408;2023-04-26T11:15:30;1.90;;;1.80;;
15643;SDS011;7921;43.586;1.408;2023-04-26T11:17:56;1.67;;;1.58;;
15643;SDS011;7921;43.586;1.408;2023-04-26T11:20:21;2.00;;;1.90;;
15643;SDS011;7921;43.586;1.408;2023-04-26T11:22:47;2.80;;;2.60;;
15643;SDS011;7921;43.586;1.408;2023-04-26T11:25:12;2.85;;;2.65;;
15643;SDS011;7921;43.586;1.408;2023-04-26T11:27:38;2.63;;;2.50;;
15643;SDS011;7921;43.586;1.408;2023-04-26T11:30:07;2.05;;;1.95;;
15643;SDS011;7921;43.586;1.408;2023-04-26T11:32:32;1.73;;;1.63;;
15643;SDS011;7921;43.586;1.408;2023-04-26T11:35:01;1.85;;;1.75;;
15643;SDS011;7921;43.586;1.408;2023-04-26T11:37:26;1.80;;;1.70;;
15643;SDS011;7921;43.586;1.408;2023-04-26T11:39:52;1.50;;;1.50;;
15643;SDS011;7921;43.586;1.408;2023-04-26T11:42:17;1.85;;;1.75;;
15643;SDS011;7921;43.586;1.408;2023-04-26T11:44:49;2.00;;;1.90;;
15643;SDS011;7921;43.586;1.408;2023-04-26T11:47:15;2.00;;;1.90;;
15643;SDS011;7921;43.586;1.408;2023-04-26T11:49:41;2.05;;;1.95;;
15643;SDS011;7921;43.586;1.408;2023-04-26T11:52:07;1.63;;;1.52;;
15643;SDS011;7921;43.586;1.408;2023-04-26T11:54:33;1.90;;;1.80;;
15643;SDS011;7921;43.586;1.408;2023-04-26T11:56:59;2.10;;;2.00;;
15643;SDS011;7921;43.586;1.408;2023-04-26T11:59:26;2.15;;;2.00;;
15643;SDS011;7921;43.586;1.408;2023-04-26T12:01:53;2.08;;;1.90;;
15643;SDS011;7921;43.586;1.408;2023-04-26T12:04:25;2.30;;;2.20;;
15643;SDS011;7921;43.586;1.408;2023-04-26T12:06:53;2.13;;;2.03;;
15643;SDS011;7921;43.586;1.408;2023-04-26T12:09:21;2.67;;;2.47;;
15643;SDS011;7921;43.586;1.408;2023-04-26T12:11:57;2.35;;;2.25;;
15643;SDS011;7921;43.586;1.408;2023-04-26T12:14:30;2.15;;;2.05;;
15643;SDS011;7921;43.586;1.408;2023-04-26T12:16:59;2.00;;;1.90;;
15643;SDS011;7921;43.586;1.408;2023-04-26T12:19:26;1.50;;;1.40;;
15643;SDS011;7921;43.586;1.408;2023-04-26T12:21:51;2.10;;;2.00;;
15643;SDS011;7921;43.586;1.408;2023-04-26T12:24:24;1.60;;;1.50;;
15643;SDS011;7921;43.586;1.408;2023-04-26T12:26:50;1.40;;;1.30;;
15643;SDS011;7921;43.586;1.408;2023-04-26T12:29:16;1.40;;;1.30;;
15643;SDS011;7921;43.586;1.408;2023-04-26T12:31:41;1.33;;;1.27;;
15643;SDS011;7921;43.586;1.408;2023-04-26T12:34:07;1.67;;;1.58;;
15643;SDS011;7921;43.586;1.408;2023-04-26T12:36:32;1.40;;;1.30;;
15643;SDS011;7921;43.586;1.408;2023-04-26T12:38:57;1.70;;;1.60;;
15643;SDS011;7921;43.586;1.408;2023-04-26T12:41:24;1.63;;;1.52;;
15643;SDS011;7921;43.586;1.408;2023-04-26T12:43:50;1.55;;;1.45;;
15643;SDS011;7921;43.586;1.408;2023-04-26T12:46:15;1.80;;;1.70;;
15643;SDS011;7921;43.586;1.408;2023-04-26T12:48:41;1.70;;;1.60;;
15643;SDS011;7921;43.586;1.408;2023-04-26T12:51:06;1.92;;;1.83;;
15643;SDS011;7921;43.586;1.408;2023-04-26T12:53:31;1.90;;;1.73;;
15643;SDS011;7921;43.586;1.408;2023-04-26T12:55:57;1.75;;;1.63;;
15643;SDS011;7921;43.586;1.408;2023-04-26T12:58:23;2.13;;;1.45;;
15643;SDS011;7921;43.586;1.408;2023-04-26T13:00:49;1.70;;;1.60;;
15643;SDS011;7921;43.586;1.408;2023-04-26T13:03:15;1.10;;;1.10;;
15643;SDS011;7921;43.586;1.408;2023-04-26T13:05:41;1.38;;;1.27;;
15643;SDS011;7921;43.586;1.408;2023-04-26T13:08:07;1.77;;;1.67;;
15643;SDS011;7921;43.586;1.408;2023-04-26T13:10:32;1.50;;;1.40;;
15643;SDS011;7921;43.586;1.408;2023-04-26T13:12:58;1.17;;;1.02;;
15643;SDS011;7921;43.586;1.408;2023-04-26T13:15:23;1.17;;;1.08;;
15643;SDS011;7921;43.586;1.408;2023-04-26T13:17:50;1.20;;;1.10;;
15643;SDS011;7921;43.586;1.408;2023-04-26T13:20:16;1.98;;;1.20;;
15643;SDS011;7921;43.586;1.408;2023-04-26T13:22:41;1.42;;;1.30;;
15643;SDS011;7921;43.586;1.408;2023-04-26T13:25:07;1.63;;;1.52;;
15643;SDS011;7921;43.586;1.408;2023-04-26T13:27:34;1.70;;;1.60;;
15643;SDS011;7921;43.586;1.408;2023-04-26T13:29:59;1.25;;;1.25;;
15643;SDS011;7921;43.586;1.408;2023-04-26T13:32:24;1.05;;;1.05;;
15643;SDS011;7921;43.586;1.408;2023-04-26T13:34:50;1.20;;;1.10;;
15643;SDS011;7921;43.586;1.408;2023-04-26T13:37:15;0.75;;;0.75;;
15643;SDS011;7921;43.586;1.408;2023-04-26T13:39:43;1.10;;;1.00;;
15643;SDS011;7921;43.586;1.408;2023-04-26T13:42:08;0.80;;;0.80;;
15643;SDS011;7921;43.586;1.408;2023-04-26T13:44:34;0.75;;;0.75;;
15643;SDS011;7921;43.586;1.408;2023-04-26T13:46:59;1.10;;;1.00;;
15643;SDS011;7921;43.586;1.408;2023-04-26T13:49:25;1.42;;;1.33;;
15643;SDS011;7921;43.586;1.408;2023-04-26T13:51:51;1.20;;;1.10;;
15643;SDS011;7921;43.586;1.408;2023-04-26T13:54:17;0.90;;;0.90;;
15643;SDS011;7921;43.586;1.408;2023-04-26T13:56:45;0.90;;;0.85;;
15643;SDS011;7921;43.586;1.408;2023-04-26T13:59:11;0.90;;;0.90;;
15643;SDS011;7921;43.586;1.408;2023-04-26T14:01:36;0.88;;;0.80;;
15643;SDS011;7921;43.586;1.408;2023-04-26T14:04:03;1.88;;;1.10;;
15643;SDS011;7921;43.586;1.408;2023-04-26T14:06:28;1.02;;;0.90;;
15643;SDS011;7921;43.586;1.408;2023-04-26T14:08:54;1.70;;;0.90;;
15643;SDS011;7921;43.586;1.408;2023-04-26T14:11:19;1.30;;;0.90;;
15643;SDS011;7921;43.586;1.408;2023-04-26T14:13:45;1.33;;;1.15;;
15643;SDS011;7921;43.586;1.408;2023-04-26T14:16:10;0.80;;;0.80;;
15643;SDS011;7921;43.586;1.408;2023-04-26T14:18:36;0.85;;;0.60;;
15643;SDS011;7921;43.586;1.408;2023-04-26T14:21:03;1.58;;;1.00;;
15643;SDS011;7921;43.586;1.408;2023-04-26T14:23:29;0.93;;;0.93;;
15643;SDS011;7921;43.586;1.408;2023-04-26T14:25:54;0.90;;;0.90;;
15643;SDS011;7921;43.586;1.408;2023-04-26T14:28:20;1.00;;;0.90;;
15643;SDS011;7921;43.586;1.408;2023-04-26T14:30:45;0.60;;;0.60;;
15643;SDS011;7921;43.586;1.408;2023-04-26T14:33:11;0.50;;;0.50;;
15643;SDS011;7921;43.586;1.408;2023-04-26T14:35:37;0.60;;;0.60;;
15643;SDS011;7921;43.586;1.408;2023-04-26T14:38:02;0.70;;;0.60;;
15643;SDS011;7921;43.586;1.408;2023-04-26T14:40:27;0.55;;;0.55;;
15643;SDS011;7921;43.586;1.408;2023-04-26T14:42:54;1.75;;;0.47;;
15643;SDS011;7921;43.586;1.408;2023-04-26T14:45:19;1.00;;;0.50;;
15643;SDS011;7921;43.586;1.408;2023-04-26T14:47:45;0.73;;;0.57;;
15643;SDS011;7921;43.586;1.408;2023-04-26T14:50:10;0.50;;;0.50;;
15643;SDS011;7921;43.586;1.408;2023-04-26T14:52:37;0.90;;;0.50;;
15643;SDS011;7921;43.586;1.408;2023-04-26T14:55:03;0.60;;;0.60;;
15643;SDS011;7921;43.586;1.408;2023-04-26T14:57:29;1.75;;;0.60;;
15643;SDS011;7921;43.586;1.408;2023-04-26T14:59:55;1.15;;;0.75;;
15643;SDS011;7921;43.586;1.408;2023-04-26T15:02:21;0.85;;;0.85;;
15643;SDS011;7921;43.586;1.408;2023-04-26T15:04:47;1.13;;;1.05;;
15643;SDS011;7921;43.586;1.408;2023-04-26T15:07:12;0.80;;;0.80;;
15643;SDS011;7921;43.586;1.408;2023-04-26T15:09:39;0.90;;;0.90;;
15643;SDS011;7921;43.586;1.408;2023-04-26T15:12:04;1.10;;;1.00;;
15643;SDS011;7921;43.586;1.408;2023-04-26T15:14:30;0.80;;;0.80;;
15643;SDS011;7921;43.586;1.408;2023-04-26T15:16:56;0.98;;;0.80;;
15643;SDS011;7921;43.586;1.408;2023-04-26T15:19:21;0.88;;;0.80;;
15643;SDS011;7921;43.586;1.408;2023-04-26T15:21:47;0.80;;;0.80;;
15643;SDS011;7921;43.586;1.408;2023-04-26T15:24:13;0.73;;;0.73;;
15643;SDS011;7921;43.586;1.408;2023-04-26T15:26:38;1.20;;;1.10;;
15643;SDS011;7921;43.586;1.408;2023-04-26T15:29:04;0.90;;;0.90;;
15643;SDS011;7921;43.586;1.408;2023-04-26T15:31:29;1.83;;;1.10;;
15643;SDS011;7921;43.586;1.408;2023-04-26T15:33:55;1.60;;;0.95;;
15643;SDS011;7921;43.586;1.408;2023-04-26T15:36:21;1.63;;;0.90;;
15643;SDS011;7921;43.586;1.408;2023-04-26T15:38:46;1.05;;;0.95;;
15643;SDS011;7921;43.586;1.408;2023-04-26T15:41:12;1.20;;;1.02;;
15643;SDS011;7921;43.586;1.408;2023-04-26T15:43:38;1.10;;;1.00;;
15643;SDS011;7921;43.586;1.408;2023-04-26T15:46:03;1.27;;;1.00;;
15643;SDS011;7921;43.586;1.408;2023-04-26T15:48:29;0.90;;;0.90;;
15643;SDS011;7921;43.586;1.408;2023-04-26T15:50:54;1.10;;;0.95;;
15643;SDS011;7921;43.586;1.408;2023-04-26T15:53:20;0.65;;;0.57;;
15643;SDS011;7921;43.586;1.408;2023-04-26T15:55:46;0.90;;;0.90;;
15643;SDS011;7921;43.586;1.408;2023-04-26T15:58:11;1.77;;;0.90;;
15643;SDS011;7921;43.586;1.408;2023-04-26T16:00:37;0.90;;;0.90;;
15643;SDS011;7921;43.586;1.408;2023-04-26T16:03:02;1.10;;;1.00;;
15643;SDS011;7921;43.586;1.408;2023-04-26T16:05:28;1.30;;;0.90;;
15643;SDS011;7921;43.586;1.408;2023-04-26T16:07:55;0.85;;;0.80;;
15643;SDS011;7921;43.586;1.408;2023-04-26T16:10:20;0.60;;;0.60;;
15643;SDS011;7921;43.586;1.408;2023-04-26T16:12:46;1.15;;;1.05;;
15643;SDS011;7921;43.586;1.408;2023-04-26T16:15:11;1.15;;;1.05;;
15643;SDS011;7921;43.586;1.408;2023-04-26T16:17:38;0.70;;;0.70;;
15643;SDS011;7921;43.586;1.408;2023-04-26T16:20:04;0.70;;;0.70;;
15643;SDS011;7921;43.586;1.408;2023-04-26T16:22:33;1.10;;;0.80;;
15643;SDS011;7921;43.586;1.408;2023-04-26T16:24:59;0.70;;;0.70;;
15643;SDS011;7921;43.586;1.408;2023-04-26T16:27:24;1.00;;;1.00;;
15643;SDS011;7921;43.586;1.408;2023-04-26T16:29:51;0.75;;;0.75;;
15643;SDS011;7921;43.586;1.408;2023-04-26T16:32:19;0.57;;;0.57;;
15643;SDS011;7921;43.586;1.408;2023-04-26T16:34:45;1.02;;;0.82;;
15643;SDS011;7921;43.586;1.408;2023-04-26T16:37:11;1.25;;;1.15;;
15643;SDS011;7921;43.586;1.408;2023-04-26T16:39:36;1.85;;;1.75;;
15643;SDS011;7921;43.586;1.408;2023-04-26T16:42:02;1.50;;;1.40;;
15643;SDS011;7921;43.586;1.408;2023-04-26T16:44:27;1.55;;;1.45;;
15643;SDS011;7921;43.586;1.408;2023-04-26T16:46:53;0.80;;;0.80;;
15643;SDS011;7921;43.586;1.408;2023-04-26T16:49:19;0.85;;;0.80;;
15643;SDS011;7921;43.586;1.408;2023-04-26T16:51:44;0.90;;;0.90;;
15643;SDS011;7921;43.586;1.408;2023-04-26T16:54:17;0.98;;;0.93;;
15643;SDS011;7921;43.586;1.408;2023-04-26T16:56:43;0.85;;;0.85;;
15643;SDS011;7921;43.586;1.408;2023-04-26T16:59:08;2.63;;;1.10;;
15643;SDS011;7921;43.586;1.408;2023-04-26T17:01:34;0.90;;;0.90;;
15643;SDS011;7921;43.586;1.408;2023-04-26T17:03:59;0.70;;;0.70;;
15643;SDS011;7921;43.586;1.408;2023-04-26T17:06:25;0.80;;;0.80;;
15643;SDS011;7921;43.586;1.408;2023-04-26T17:08:50;0.85;;;0.60;;
15643;SDS011;7921;43.586;1.408;2023-04-26T17:11:15;0.68;;;0.68;;
15643;SDS011;7921;43.586;1.408;2023-04-26T17:13:41;1.27;;;0.90;;
15643;SDS011;7921;43.586;1.408;2023-04-26T17:16:07;1.13;;;1.00;;
15643;SDS011;7921;43.586;1.408;2023-04-26T17:18:33;1.33;;;1.00;;
15643;SDS011;7921;43.586;1.408;2023-04-26T17:21:00;1.02;;;1.02;;
15643;SDS011;7921;43.586;1.408;2023-04-26T17:23:25;0.77;;;0.77;;
15643;SDS011;7921;43.586;1.408;2023-04-26T17:25:51;0.98;;;0.90;;
15643;SDS011;7921;43.586;1.408;2023-04-26T17:28:16;1.17;;;0.90;;
15643;SDS011;7921;43.586;1.408;2023-04-26T17:30:42;1.33;;;1.23;;
15643;SDS011;7921;43.586;1.408;2023-04-26T17:33:07;1.20;;;1.20;;
15643;SDS011;7921;43.586;1.408;2023-04-26T17:35:32;1.40;;;1.30;;
15643;SDS011;7921;43.586;1.408;2023-04-26T17:37:58;2.78;;;1.65;;
15643;SDS011;7921;43.586;1.408;2023-04-26T17:40:23;1.40;;;1.30;;
15643;SDS011;7921;43.586;1.408;2023-04-26T17:42:49;1.13;;;1.10;;
15643;SDS011;7921;43.586;1.408;2023-04-26T17:45:14;1.45;;;0.93;;
15643;SDS011;7921;43.586;1.408;2023-04-26T17:47:40;1.00;;;1.00;;
15643;SDS011;7921;43.586;1.408;2023-04-26T17:50:06;1.70;;;1.60;;
15643;SDS011;7921;43.586;1.408;2023-04-26T17:52:32;2.15;;;1.95;;
15643;SDS011;7921;43.586;1.408;2023-04-26T17:54:57;2.58;;;2.38;;
15643;SDS011;7921;43.586;1.408;2023-04-26T17:57:22;1.80;;;1.70;;
15643;SDS011;7921;43.586;1.408;2023-04-26T17:59:51;1.70;;;1.60;;
15643;SDS011;7921;43.586;1.408;2023-04-26T18:02:17;1.52;;;1.40;;
15643;SDS011;7921;43.586;1.408;2023-04-26T18:04:42;1.70;;;1.58;;
15643;SDS011;7921;43.586;1.408;2023-04-26T18:07:09;1.02;;;1.02;;
15643;SDS011;7921;43.586;1.408;2023-04-26T18:09:36;1.30;;;1.20;;
15643;SDS011;7921;43.586;1.408;2023-04-26T18:12:01;1.20;;;1.10;;
15643;SDS011;7921;43.586;1.408;2023-04-26T18:14:26;1.50;;;0.70;;
15643;SDS011;7921;43.586;1.408;2023-04-26T18:16:52;0.90;;;0.90;;
15643;SDS011;7921;43.586;1.408;2023-04-26T18:19:17;0.70;;;0.52;;
15643;SDS011;7921;43.586;1.408;2023-04-26T18:21:43;1.15;;;0.90;;
15643;SDS011;7921;43.586;1.408;2023-04-26T18:24:08;1.52;;;1.00;;
15643;SDS011;7921;43.586;1.408;2023-04-26T18:26:33;3.00;;;2.75;;
15643;SDS011;7921;43.586;1.408;2023-04-26T18:28:59;2.83;;;2.08;;
15643;SDS011;7921;43.586;1.408;2023-04-26T18:31:24;2.20;;;2.00;;
15643;SDS011;7921;43.586;1.408;2023-04-26T18:33:50;2.13;;;1.92;;
15643;SDS011;7921;43.586;1.408;2023-04-26T18:36:15;3.05;;;2.42;;
15643;SDS011;7921;43.586;1.408;2023-04-26T18:38:41;1.85;;;1.75;;
15643;SDS011;7921;43.586;1.408;2023-04-26T18:41:07;3.08;;;1.95;;
15643;SDS011;7921;43.586;1.408;2023-04-26T18:43:32;1.73;;;1.40;;
15643;SDS011;7921;43.586;1.408;2023-04-26T18:45:58;1.67;;;1.38;;
15643;SDS011;7921;43.586;1.408;2023-04-26T18:48:23;3.33;;;1.70;;
15643;SDS011;7921;43.586;1.408;2023-04-26T18:50:52;1.25;;;1.10;;
15643;SDS011;7921;43.586;1.408;2023-04-26T18:53:18;1.45;;;1.35;;
15643;SDS011;7921;43.586;1.408;2023-04-26T18:55:45;1.00;;;1.00;;
15643;SDS011;7921;43.586;1.408;2023-04-26T18:58:11;1.02;;;1.00;;
15643;SDS011;7921;43.586;1.408;2023-04-26T19:00:37;0.90;;;0.88;;
15643;SDS011;7921;43.586;1.408;2023-04-26T19:03:02;1.20;;;1.10;;
15643;SDS011;7921;43.586;1.408;2023-04-26T19:05:28;1.98;;;1.00;;
15643;SDS011;7921;43.586;1.408;2023-04-26T19:07:53;1.38;;;1.27;;
15643;SDS011;7921;43.586;1.408;2023-04-26T19:10:19;1.63;;;1.50;;
15643;SDS011;7921;43.586;1.408;2023-04-26T19:12:45;3.38;;;2.30;;
15643;SDS011;7921;43.586;1.408;2023-04-26T19:15:11;2.83;;;2.63;;
15643;SDS011;7921;43.586;1.408;2023-04-26T19:17:36;4.43;;;3.25;;
15643;SDS011;7921;43.586;1.408;2023-04-26T19:20:02;3.70;;;3.40;;
15643;SDS011;7921;43.586;1.408;2023-04-26T19:22:36;5.20;;;3.17;;
15643;SDS011;7921;43.586;1.408;2023-04-26T19:25:02;3.05;;;2.85;;
15643;SDS011;7921;43.586;1.408;2023-04-26T19:27:29;3.30;;;3.00;;
15643;SDS011;7921;43.586;1.408;2023-04-26T19:29:56;2.92;;;2.63;;
15643;SDS011;7921;43.586;1.408;2023-04-26T19:32:21;3.20;;;3.00;;
15643;SDS011;7921;43.586;1.408;2023-04-26T19:34:47;2.70;;;2.40;;
15643;SDS011;7921;43.586;1.408;2023-04-26T19:37:13;2.80;;;2.60;;
15643;SDS011;7921;43.586;1.408;2023-04-26T19:39:38;2.00;;;1.85;;
15643;SDS011;7921;43.586;1.408;2023-04-26T19:42:03;2.33;;;1.80;;
15643;SDS011;7921;43.586;1.408;2023-04-26T19:44:29;2.20;;;2.10;;
15643;SDS011;7921;43.586;1.408;2023-04-26T19:46:55;2.17;;;2.08;;
15643;SDS011;7921;43.586;1.408;2023-04-26T19:49:20;2.00;;;1.90;;
15643;SDS011;7921;43.586;1.408;2023-04-26T19:51:46;2.53;;;2.22;;
15643;SDS011;7921;43.586;1.408;2023-04-26T19:54:11;1.95;;;1.63;;
15643;SDS011;7921;43.586;1.408;2023-04-26T19:56:36;2.15;;;1.65;;
15643;SDS011;7921;43.586;1.408;2023-04-26T19:59:02;1.80;;;1.70;;
15643;SDS011;7921;43.586;1.408;2023-04-26T20:01:27;1.75;;;1.52;;
15643;SDS011;7921;43.586;1.408;2023-04-26T20:03:53;1.90;;;1.67;;
15643;SDS011;7921;43.586;1.408;2023-04-26T20:06:18;1.67;;;1.42;;
15643;SDS011;7921;43.586;1.408;2023-04-26T20:08:43;1.52;;;1.40;;
15643;SDS011;7921;43.586;1.408;2023-04-26T20:11:09;1.48;;;1.38;;
15643;SDS011;7921;43.586;1.408;2023-04-26T20:13:39;1.50;;;1.40;;
15643;SDS011;7921;43.586;1.408;2023-04-26T20:16:06;1.75;;;1.65;;
15643;SDS011;7921;43.586;1.408;2023-04-26T20:18:31;2.30;;;2.10;;
15643;SDS011;7921;43.586;1.408;2023-04-26T20:20:57;1.60;;;1.50;;
15643;SDS011;7921;43.586;1.408;2023-04-26T20:23:22;2.13;;;1.88;;
15643;SDS011;7921;43.586;1.408;2023-04-26T20:25:49;2.35;;;1.67;;
15643;SDS011;7921;43.586;1.408;2023-04-26T20:28:14;1.73;;;1.63;;
15643;SDS011;7921;43.586;1.408;2023-04-26T20:30:40;1.98;;;1.75;;
15643;SDS011;7921;43.586;1.408;2023-04-26T20:33:05;2.10;;;1.90;;
15643;SDS011;7921;43.586;1.408;2023-04-26T20:35:31;2.38;;;2.17;;
15643;SDS011;7921;43.586;1.408;2023-04-26T20:37:56;1.92;;;1.83;;
15643;SDS011;7921;43.586;1.408;2023-04-26T20:40:22;1.70;;;1.60;;
15643;SDS011;7921;43.586;1.408;2023-04-26T20:42:47;2.58;;;1.67;;